Espadon — 3FYO5 — position and weather

sailwx.info

Track history (hours):
 
Tides and Currents Weather Stations Pressure Air Temp Water Temp Dewpoint Dewpoint Depression Visibility Wind Speed Wind Dir Waves Ship Positions

Espadon

Last reported at 2017-Oct-14 04:56 UTC. Time now 2017-Oct-17 13:03 UTC.
Position N 35°56' W 005°15'.

Length 81 m; draft 4.5 m.

Type: Cargo ship. MMSI: 371512000.

Date/timePositionNaut miles runAvg speedWind from/ knotsBaromVisibWave heightAir tempDewpointWater temp
2017-Oct-14 04:56N 35°56' W 005°15'3 7.7
2017-Oct-14 04:30N 35°54' W 005°18'1 1.3
2017-Oct-14 04:00N 35°54' W 005°19'0 0.0
2017-Oct-14 03:30N 35°54' W 005°19'0 0.0
2017-Oct-14 03:00N 35°54' W 005°19'0 0.0
2017-Oct-14 02:30N 35°54' W 005°19'0 0.0
2017-Oct-14 02:00N 35°54' W 005°19'0 0.0
2017-Oct-14 01:30N 35°54' W 005°19'0 0.0
2017-Oct-14 01:00N 35°54' W 005°19'0 0.0
2017-Oct-14 00:30N 35°54' W 005°19'0 0.4
2017-Oct-14 00:00N 35°54' W 005°19'1 2.6
2017-Oct-13 23:30N 35°55' W 005°19'2 3.8
2017-Oct-13 23:00N 35°56' W 005°21'4 8.1
2017-Oct-13 22:30N 35°57' W 005°25'106 7.2
2017-Oct-13 07:52N 36°11' W 007°36'17 7.5
2017-Oct-13 05:39N 36°15' W 007°56'53 8.1
2017-Oct-12 23:04N 36°29' W 008°60'3 9.1
2017-Oct-12 22:47N 36°30' W 009°03'4 8.6
2017-Oct-12 22:19N 36°31' W 009°08'3 8.9
2017-Oct-12 21:57N 36°32' W 009°11'4 8.9
2017-Oct-12 21:30N 36°33' W 009°16'107 8.1
2017-Oct-12 08:20N 38°14' W 009°59'11 8.1
2017-Oct-12 07:02N 38°25' W 010°02'0 8.0
2017-Oct-12 07:00N 38°25' W 010°02'18 8.0
2017-Oct-12 04:44N 38°43' W 010°07'2 7.9
2017-Oct-12 04:30N 38°44' W 010°07'4 7.7
2017-Oct-12 04:00N 38°48' W 010°07'4 8.2
2017-Oct-12 03:30N 38°52' W 010°07'4 8.4
2017-Oct-12 03:00N 38°56' W 010°07'4 8.0
2017-Oct-12 02:30N 39°00' W 010°07'4 8.2
2017-Oct-12 02:00N 39°05' W 010°07'4 8.3
2017-Oct-12 01:30N 39°09' W 010°07'4 8.5
2017-Oct-12 01:00N 39°13' W 010°07'4 8.2
2017-Oct-12 00:30N 39°17' W 010°07'13 7.9
2017-Oct-11 22:49N 39°30' W 010°07'3 8.4
2017-Oct-11 22:30N 39°33' W 010°07'  
2017-Oct-07 14:07N 50°30' W 000°08'1 5.8
2017-Oct-07 13:57N 50°30' W 000°07'3 5.6
2017-Oct-07 13:29N 50°31' W 000°03'3 5.0
2017-Oct-07 12:59N 50°32' E 000°01'2 4.6
2017-Oct-07 12:27N 50°32' E 000°04'2 4.3
2017-Oct-07 12:00N 50°33' E 000°07'2 3.6
2017-Oct-07 11:30N 50°33' E 000°10'5 2.6
2017-Oct-07 09:26N 50°35' E 000°18'6 3.2
2017-Oct-07 07:32N 50°36' E 000°28'1 5.4
2017-Oct-07 07:23N 50°37' E 000°29'2 5.6
2017-Oct-07 06:59N 50°37' E 000°32'3 6.5
2017-Oct-07 06:30N 50°39' E 000°36'4 7.1
2017-Oct-07 06:00N 50°41' E 000°41'4 7.9
2017-Oct-07 05:30N 50°43' E 000°46'30 7.2
2017-Oct-07 01:22N 51°02' E 001°22'2 5.0
2017-Oct-07 01:00N 51°03' E 001°25'3 5.1
2017-Oct-07 00:30N 51°05' E 001°28'3 5.4
2017-Oct-06 23:59N 51°07' E 001°31'3 5.9
2017-Oct-06 23:30N 51°08' E 001°35'3 6.7
2017-Oct-06 23:00N 51°11' E 001°39'4 7.5
2017-Oct-06 22:30N 51°13' E 001°44'5 9.1
2017-Oct-06 22:00N 51°17' E 001°47'510.5
2017-Oct-06 21:30N 51°22' E 001°51'510.8
2017-Oct-06 21:00N 51°27' E 001°54'510.7
2017-Oct-06 20:30N 51°32' E 001°57'35 8.1
2017-Oct-06 16:08N 52°06' E 002°10'1 6.1
2017-Oct-06 15:59N 52°07' E 002°10'50 7.0
2017-Oct-06 08:45N 52°56' E 001°52'2 9.4
2017-Oct-06 08:30N 52°58' E 001°49'5 9.6
2017-Oct-06 08:00N 53°00' E 001°43'5 9.7
2017-Oct-06 07:30N 53°03' E 001°36'5 9.8
2017-Oct-06 07:00N 53°07' E 001°30'81 8.1
2017-Oct-05 21:02N 54°07' E 000°00'0 6.0
2017-Oct-05 21:00N 54°08' W 000°00'3 5.5
2017-Oct-05 20:30N 54°10' W 000°03'3 6.6
2017-Oct-05 20:00N 54°12' W 000°07'4 7.5
2017-Oct-05 19:30N 54°15' W 000°11'4 7.7
2017-Oct-05 19:00N 54°18' W 000°15'4 8.0
2017-Oct-05 18:30N 54°21' W 000°20'4 8.4
2017-Oct-05 18:00N 54°24' W 000°24'5 0.2
2017-Oct-04 19:10N 54°29' W 000°28'210.0
2017-Oct-04 19:00N 54°28' W 000°26'5 9.8
2017-Oct-04 18:30N 54°24' W 000°20'5 9.4
2017-Oct-04 18:00N 54°20' W 000°15'4 8.8
2017-Oct-04 17:30N 54°17' W 000°10'4 8.3
2017-Oct-04 17:00N 54°14' W 000°05'4 7.9
2017-Oct-04 16:30N 54°11' W 000°00'4 7.5
2017-Oct-04 16:00N 54°08' E 000°03'75 7.3
2017-Oct-04 05:44N 53°09' E 001°21'  
Track history (hours):
 
Tides and Currents Weather Stations Pressure Air Temp Water Temp Dewpoint Dewpoint Depression Visibility Wind Speed Wind Dir Waves Ship Positions

Espadon

Last reported at 2017-Oct-14 04:56 UTC. Time now 2017-Oct-17 13:03 UTC.
Position N 35°56' W 005°15'.

Length 81 m; draft 4.5 m.

Type: Cargo ship. MMSI: 371512000.

Date/timePositionNaut miles runAvg speedWind from/ knotsBaromVisibWave heightAir tempDewpointWater temp
2017-Oct-14 04:56N 35°56' W 005°15'3 7.7
2017-Oct-14 04:30N 35°54' W 005°18'1 1.3
2017-Oct-14 04:00N 35°54' W 005°19'0 0.0
2017-Oct-14 03:30N 35°54' W 005°19'0 0.0
2017-Oct-14 03:00N 35°54' W 005°19'0 0.0
2017-Oct-14 02:30N 35°54' W 005°19'0 0.0
2017-Oct-14 02:00N 35°54' W 005°19'0 0.0
2017-Oct-14 01:30N 35°54' W 005°19'0 0.0
2017-Oct-14 01:00N 35°54' W 005°19'0 0.0
2017-Oct-14 00:30N 35°54' W 005°19'0 0.4
2017-Oct-14 00:00N 35°54' W 005°19'1 2.6
2017-Oct-13 23:30N 35°55' W 005°19'2 3.8
2017-Oct-13 23:00N 35°56' W 005°21'4 8.1
2017-Oct-13 22:30N 35°57' W 005°25'106 7.2
2017-Oct-13 07:52N 36°11' W 007°36'17 7.5
2017-Oct-13 05:39N 36°15' W 007°56'53 8.1
2017-Oct-12 23:04N 36°29' W 008°60'3 9.1
2017-Oct-12 22:47N 36°30' W 009°03'4 8.6
2017-Oct-12 22:19N 36°31' W 009°08'3 8.9
2017-Oct-12 21:57N 36°32' W 009°11'4 8.9
2017-Oct-12 21:30N 36°33' W 009°16'107 8.1
2017-Oct-12 08:20N 38°14' W 009°59'11 8.1
2017-Oct-12 07:02N 38°25' W 010°02'0 8.0
2017-Oct-12 07:00N 38°25' W 010°02'18 8.0
2017-Oct-12 04:44N 38°43' W 010°07'2 7.9
2017-Oct-12 04:30N 38°44' W 010°07'4 7.7
2017-Oct-12 04:00N 38°48' W 010°07'4 8.2
2017-Oct-12 03:30N 38°52' W 010°07'4 8.4
2017-Oct-12 03:00N 38°56' W 010°07'4 8.0
2017-Oct-12 02:30N 39°00' W 010°07'4 8.2
2017-Oct-12 02:00N 39°05' W 010°07'4 8.3
2017-Oct-12 01:30N 39°09' W 010°07'4 8.5
2017-Oct-12 01:00N 39°13' W 010°07'4 8.2
2017-Oct-12 00:30N 39°17' W 010°07'13 7.9
2017-Oct-11 22:49N 39°30' W 010°07'3 8.4
2017-Oct-11 22:30N 39°33' W 010°07'  
2017-Oct-07 14:07N 50°30' W 000°08'1 5.8
2017-Oct-07 13:57N 50°30' W 000°07'3 5.6
2017-Oct-07 13:29N 50°31' W 000°03'3 5.0
2017-Oct-07 12:59N 50°32' E 000°01'2 4.6
2017-Oct-07 12:27N 50°32' E 000°04'2 4.3
2017-Oct-07 12:00N 50°33' E 000°07'2 3.6
2017-Oct-07 11:30N 50°33' E 000°10'5 2.6
2017-Oct-07 09:26N 50°35' E 000°18'6 3.2
2017-Oct-07 07:32N 50°36' E 000°28'1 5.4
2017-Oct-07 07:23N 50°37' E 000°29'2 5.6
2017-Oct-07 06:59N 50°37' E 000°32'3 6.5
2017-Oct-07 06:30N 50°39' E 000°36'4 7.1
2017-Oct-07 06:00N 50°41' E 000°41'4 7.9
2017-Oct-07 05:30N 50°43' E 000°46'30 7.2
2017-Oct-07 01:22N 51°02' E 001°22'2 5.0
2017-Oct-07 01:00N 51°03' E 001°25'3 5.1
2017-Oct-07 00:30N 51°05' E 001°28'3 5.4
2017-Oct-06 23:59N 51°07' E 001°31'3 5.9
2017-Oct-06 23:30N 51°08' E 001°35'3 6.7
2017-Oct-06 23:00N 51°11' E 001°39'4 7.5
2017-Oct-06 22:30N 51°13' E 001°44'5 9.1
2017-Oct-06 22:00N 51°17' E 001°47'510.5
2017-Oct-06 21:30N 51°22' E 001°51'510.8
2017-Oct-06 21:00N 51°27' E 001°54'510.7
2017-Oct-06 20:30N 51°32' E 001°57'35 8.1
2017-Oct-06 16:08N 52°06' E 002°10'1 6.1
2017-Oct-06 15:59N 52°07' E 002°10'50 7.0
2017-Oct-06 08:45N 52°56' E 001°52'2 9.4
2017-Oct-06 08:30N 52°58' E 001°49'5 9.6
2017-Oct-06 08:00N 53°00' E 001°43'5 9.7
2017-Oct-06 07:30N 53°03' E 001°36'5 9.8
2017-Oct-06 07:00N 53°07' E 001°30'81 8.1
2017-Oct-05 21:02N 54°07' E 000°00'0 6.0
2017-Oct-05 21:00N 54°08' W 000°00'3 5.5
2017-Oct-05 20:30N 54°10' W 000°03'3 6.6
2017-Oct-05 20:00N 54°12' W 000°07'4 7.5
2017-Oct-05 19:30N 54°15' W 000°11'4 7.7
2017-Oct-05 19:00N 54°18' W 000°15'4 8.0
2017-Oct-05 18:30N 54°21' W 000°20'4 8.4
2017-Oct-05 18:00N 54°24' W 000°24'5 0.2
2017-Oct-04 19:10N 54°29' W 000°28'210.0
2017-Oct-04 19:00N 54°28' W 000°26'5 9.8
2017-Oct-04 18:30N 54°24' W 000°20'5 9.4
2017-Oct-04 18:00N 54°20' W 000°15'4 8.8
2017-Oct-04 17:30N 54°17' W 000°10'4 8.3
2017-Oct-04 17:00N 54°14' W 000°05'4 7.9
2017-Oct-04 16:30N 54°11' W 000°00'4 7.5
2017-Oct-04 16:00N 54°08' E 000°03'75 7.3
2017-Oct-04 05:44N 53°09' E 001°21'  

Dump ship's entire track history